Time;durP1;ratioP1;P1;durP2;ratioP2;P2;SDS_P1;SDS_P2;PMS_P1;PMS_P2;Temp;Humidity;BMP_temperature;BMP_pressure;BME280_temperature;BME280_humidity;BME280_pressure;Samples;Min_cycle;Max_cycle;Signal;HPM_P1;HPM_P2
2022/01/28 00:00:18;;;;;;;13.43;2.30;;;;;;;3.98;100.00;102007.13;685653;28;1636;-54
2022/01/28 00:00:41;;;;;;;13.10;2.40;;;;;;;4.00;100.00;102010.69;686324;28;4500;-56
2022/01/28 00:01:04;;;;;;;11.25;2.50;;;;;;;4.01;100.00;102006.38;685648;28;1511;-54
2022/01/28 00:01:34;;;;;;;11.75;2.20;;;;;;;3.99;100.00;102014.09;686979;28;4692;-54
2022/01/28 00:02:08;;;;;;;10.93;2.00;;;;;;;3.97;100.00;102014.84;691034;28;1206;-54
2022/01/28 00:02:46;;;;;;;12.23;2.42;;;;;;;3.96;100.00;102019.13;693247;28;874;-53
2022/01/28 00:03:09;;;;;;;10.88;2.35;;;;;;;3.93;100.00;102008.63;692101;28;1544;-53
2022/01/28 00:03:34;;;;;;;11.40;2.60;;;;;;;3.91;100.00;102015.44;691995;28;3760;-53
2022/01/28 00:04:01;;;;;;;12.35;2.38;;;;;;;3.90;100.00;102018.84;690369;28;2191;-56
2022/01/28 00:04:21;;;;;;;11.23;2.28;;;;;;;3.90;100.00;102018.84;691783;28;4600;-54
2022/01/28 00:04:42;;;;;;;9.90;2.10;;;;;;;3.87;100.00;102018.72;695570;28;1278;-56
2022/01/28 00:05:02;;;;;;;11.05;2.30;;;;;;;3.85;100.00;102026.41;694576;28;2880;-55
2022/01/28 00:05:23;;;;;;;10.52;2.10;;;;;;;3.84;100.00;102027.22;694988;28;1336;-52
2022/01/28 00:05:43;;;;;;;12.37;2.10;;;;;;;3.87;100.00;102023.91;695091;28;930;-55
2022/01/28 00:06:06;;;;;;;11.55;2.28;;;;;;;3.86;100.00;102024.69;694257;28;910;-53
2022/01/28 00:06:26;;;;;;;9.73;2.20;;;;;;;3.85;100.00;102025.50;694980;28;1446;-54
2022/01/28 00:06:47;;;;;;;8.98;2.20;;;;;;;3.84;100.00;102027.22;694640;28;3403;-53
2022/01/28 00:07:07;;;;;;;11.83;2.40;;;;;;;3.86;100.00;102023.03;694080;28;4734;-54
2022/01/28 00:07:27;;;;;;;13.67;2.47;;;;;;;3.85;100.00;102026.41;693644;28;1845;-55
2022/01/28 00:07:52;;;;;;;9.67;2.40;;;;;;;3.85;100.00;102030.69;694211;28;910;-57
2022/01/28 00:08:13;;;;;;;10.68;2.35;;;;;;;3.86;100.00;102022.13;695174;28;1020;-56
2022/01/28 00:08:34;;;;;;;10.45;2.17;;;;;;;3.86;100.00;102037.63;695224;28;1280;-54
2022/01/28 00:08:54;;;;;;;9.93;2.20;;;;;;;3.85;100.00;102026.41;695251;28;1209;-53
2022/01/28 00:09:15;;;;;;;11.93;2.40;;;;;;;3.85;100.00;102034.19;691754;28;1167;-58
2022/01/28 00:09:35;;;;;;;10.63;2.30;;;;;;;3.84;100.00;102031.53;690602;28;3838;-54
2022/01/28 00:09:55;;;;;;;11.37;2.70;;;;;;;3.83;100.00;102030.63;691472;28;3684;-56
2022/01/28 00:10:17;;;;;;;10.23;2.20;;;;;;;3.83;100.00;102028.03;690787;28;4645;-54
2022/01/28 00:10:40;;;;;;;10.25;2.10;;;;;;;3.82;100.00;102027.97;691894;28;1554;-53
2022/01/28 00:11:01;;;;;;;13.45;2.30;;;;;;;3.83;100.00;102033.22;692527;28;1059;-54
2022/01/28 00:11:21;;;;;;;11.75;2.17;;;;;;;3.82;100.00;102041.81;695293;28;902;-53
2022/01/28 00:11:41;;;;;;;9.45;2.15;;;;;;;3.83;100.00;102037.50;692599;28;901;-57
2022/01/28 00:12:02;;;;;;;11.97;2.37;;;;;;;3.96;100.00;102034.66;691176;28;1317;-55
2022/01/28 00:12:24;;;;;;;11.52;2.47;;;;;;;3.94;100.00;102040.59;689887;28;2090;-54
2022/01/28 00:13:34;;;;;;;12.52;2.80;;;;;;;3.94;100.00;102033.69;688693;28;3165;-54
2022/01/28 00:13:53;;;;;;;11.90;2.55;;;;;;;3.96;100.00;102034.66;691026;28;1990;-54
2022/01/28 00:14:28;;;;;;;12.93;2.53;;;;;;;4.09;100.00;102043.84;690879;28;1121;-54
2022/01/28 00:15:06;;;;;;;13.40;2.45;;;;;;;4.04;100.00;102041.06;690835;28;2016;-54
2022/01/28 00:18:33;;;;;;;11.30;2.10;;;;;;;3.90;100.00;102048.22;687059;28;1176;-53
2022/01/28 00:20:49;;;;;;;14.00;2.70;;;;;;;4.00;100.00;102051.19;694430;28;1632;-55
2022/01/28 00:38:11;;;;;;;11.98;2.60;;;;;;;4.21;100.00;102090.06;691614;28;1917;-55
2022/01/28 00:38:35;;;;;;;10.40;2.58;;;;;;;4.19;100.00;102092.59;694755;28;1725;-55
2022/01/28 00:38:56;;;;;;;10.13;2.38;;;;;;;4.17;100.00;102096.84;694913;28;1530;-54
2022/01/28 00:39:16;;;;;;;10.10;2.47;;;;;;;4.15;100.00;102087.22;693454;28;1910;-53
2022/01/28 00:39:37;;;;;;;10.25;2.55;;;;;;;4.13;100.00;102099.22;694527;28;3958;-55
2022/01/28 00:39:57;;;;;;;11.47;2.47;;;;;;;4.13;100.00;102094.06;695188;28;1542;-55
2022/01/28 00:40:17;;;;;;;12.02;2.83;;;;;;;4.12;100.00;102092.28;690025;28;4324;-54
2022/01/28 00:40:38;;;;;;;11.47;2.50;;;;;;;4.13;100.00;102100.09;691578;28;2014;-57
2022/01/28 00:40:58;;;;;;;12.80;2.50;;;;;;;4.19;100.00;102104.66;691722;28;3626;-57
2022/01/28 00:41:19;;;;;;;11.80;2.50;;;;;;;4.27;100.00;102098.13;689933;28;1207;-52
2022/01/28 00:41:40;;;;;;;9.40;2.33;;;;;;;4.36;100.00;102101.13;690923;28;1393;-56
2022/01/28 00:42:01;;;;;;;11.65;2.60;;;;;;;4.41;100.00;102096.13;689551;28;1492;-52
2022/01/28 00:42:21;;;;;;;10.77;2.45;;;;;;;4.38;100.00;102106.38;690375;28;1515;-56
2022/01/28 00:42:42;;;;;;;11.53;2.30;;;;;;;4.35;100.00;102112.28;691619;28;1084;-54
2022/01/28 00:43:04;;;;;;;10.70;2.42;;;;;;;4.46;100.00;102101.50;690508;28;1981;-57
2022/01/28 00:43:25;;;;;;;11.07;2.90;;;;;;;4.51;100.00;102105.19;688169;28;4773;-56
2022/01/28 00:43:45;;;;;;;11.98;3.00;;;;;;;4.53;100.00;102104.44;689589;28;801;-55
2022/01/28 00:44:06;;;;;;;12.05;2.40;;;;;;;4.54;100.00;102108.81;685552;28;3409;-53
2022/01/28 00:44:26;;;;;;;12.80;2.50;;;;;;;4.46;100.00;102104.09;686562;28;2150;-54
2022/01/28 00:44:47;;;;;;;10.82;2.50;;;;;;;4.42;100.00;102103.09;686891;28;1479;-52
2022/01/28 00:45:07;;;;;;;12.27;2.60;;;;;;;4.36;100.00;102102.81;689713;28;901;-53
2022/01/28 00:45:28;;;;;;;13.50;2.70;;;;;;;4.40;100.00;102115.97;689649;28;1349;-56
2022/01/28 00:45:48;;;;;;;11.15;2.58;;;;;;;4.41;100.00;102117.72;689952;28;1007;-59
2022/01/28 00:46:09;;;;;;;10.97;2.60;;;;;;;4.50;100.00;102108.59;689200;28;4560;-52
2022/01/28 00:46:29;;;;;;;11.93;2.80;;;;;;;4.55;100.00;102117.44;688694;28;805;-55
2022/01/28 00:46:50;;;;;;;14.90;2.80;;;;;;;4.49;100.00;102119.78;689524;28;3286;-53
2022/01/28 00:47:11;;;;;;;11.60;2.60;;;;;;;4.49;100.00;102114.59;688684;28;2256;-55
2022/01/28 00:47:31;;;;;;;12.52;2.72;;;;;;;4.49;100.00;102110.31;688802;28;1712;-55
2022/01/28 00:47:51;;;;;;;11.30;2.33;;;;;;;4.55;100.00;102120.91;690058;28;1416;-53
2022/01/28 00:48:12;;;;;;;9.70;2.40;;;;;;;4.50;100.00;102117.25;692002;28;1073;-56
2022/01/28 00:48:32;;;;;;;11.93;2.50;;;;;;;4.46;100.00;102114.44;692745;28;879;-53
2022/01/28 00:48:52;;;;;;;10.67;2.50;;;;;;;4.40;100.00;102118.56;691888;28;868;-54
2022/01/28 00:49:13;;;;;;;11.43;2.60;;;;;;;4.35;100.00;102111.41;687762;28;4406;-54
2022/01/28 00:49:33;;;;;;;11.37;2.60;;;;;;;4.35;100.00;102120.06;687088;28;1148;-57
2022/01/28 00:49:53;;;;;;;13.73;3.13;;;;;;;4.31;100.00;102115.56;686929;28;4423;-52
2022/01/28 00:50:15;;;;;;;12.10;2.80;;;;;;;4.36;100.00;102116.66;685558;28;3880;-52
2022/01/28 00:50:36;;;;;;;11.13;2.80;;;;;;;4.33;100.00;102119.09;686915;28;1526;-53
2022/01/28 00:50:56;;;;;;;13.48;2.67;;;;;;;4.30;100.00;102113.78;689598;28;911;-55
2022/01/28 00:51:17;;;;;;;15.00;2.60;;;;;;;4.28;100.00;102118.03;691969;28;1185;-53
2022/01/28 00:51:37;;;;;;;13.18;2.67;;;;;;;4.24;100.00;102118.69;691894;28;1754;-57
2022/01/28 00:51:58;;;;;;;13.33;2.97;;;;;;;4.26;100.00;102120.56;692207;28;1255;-53
2022/01/28 00:52:18;;;;;;;11.15;2.50;;;;;;;4.35;100.00;102116.59;694032;28;4332;-52
2022/01/28 00:52:38;;;;;;;9.93;2.20;;;;;;;4.39;100.00;102119.38;694937;28;1350;-57
2022/01/28 00:52:59;;;;;;;10.77;2.60;;;;;;;4.38;100.00;102122.78;694142;28;3395;-54
2022/01/28 00:53:19;;;;;;;12.37;2.77;;;;;;;4.40;100.00;102126.34;693661;28;1514;-55
2022/01/28 00:53:39;;;;;;;13.75;2.60;;;;;;;4.45;100.00;102117.88;694762;28;1795;-53
2022/01/28 00:54:00;;;;;;;12.07;2.30;;;;;;;4.38;100.00;102117.59;695249;28;1640;-52
2022/01/28 00:54:20;;;;;;;13.60;2.70;;;;;;;4.37;100.00;102122.72;694641;28;1609;-53
2022/01/28 00:54:40;;;;;;;12.48;3.53;;;;;;;4.35;100.00;102121.78;692504;28;1754;-55
2022/01/28 00:55:01;;;;;;;9.20;2.73;;;;;;;4.32;100.00;102125.09;692087;28;1644;-53
2022/01/28 00:55:22;;;;;;;12.77;2.88;;;;;;;4.35;100.00;102114.88;691690;28;4350;-57
2022/01/28 00:55:42;;;;;;;13.95;2.92;;;;;;;4.35;100.00;102117.47;692413;28;943;-53
2022/01/28 00:56:03;;;;;;;11.70;2.70;;;;;;;4.38;100.00;102120.19;690198;28;1453;-54
2022/01/28 00:56:23;;;;;;;10.80;2.40;;;;;;;4.36;100.00;102118.34;692010;28;2644;-53
2022/01/28 00:56:44;;;;;;;11.90;2.67;;;;;;;4.31;100.00;102118.16;694110;28;1047;-54
2022/01/28 00:57:05;;;;;;;11.93;2.70;;;;;;;4.30;100.00;102111.19;694044;28;1066;-55
2022/01/28 00:57:25;;;;;;;13.10;2.67;;;;;;;4.28;100.00;102123.19;694922;28;1231;-55
2022/01/28 00:57:45;;;;;;;10.90;2.60;;;;;;;4.33;100.00;102118.22;694934;28;1122;-53
2022/01/28 00:58:06;;;;;;;13.05;2.70;;;;;;;4.29;100.00;102117.19;693170;28;4426;-54
2022/01/28 00:58:29;;;;;;;12.13;2.67;;;;;;;4.27;100.00;102124.00;694651;28;1726;-54
2022/01/28 00:58:50;;;;;;;13.32;2.78;;;;;;;4.26;100.00;102122.22;694566;28;3397;-56
2022/01/28 00:59:11;;;;;;;11.67;2.70;;;;;;;4.24;100.00;102118.69;693546;28;3902;-54
2022/01/28 00:59:31;;;;;;;11.65;2.67;;;;;;;4.19;100.00;102115.88;694320;28;1922;-56
2022/01/28 00:59:51;;;;;;;10.98;2.67;;;;;;;4.27;100.00;102126.59;694645;28;1493;-53
2022/01/28 01:00:12;;;;;;;10.73;3.00;;;;;;;4.26;100.00;102124.81;694578;28;1694;-53
2022/01/28 01:00:33;;;;;;;12.30;2.78;;;;;;;4.32;100.00;102127.69;694807;28;999;-57
2022/01/28 01:00:53;;;;;;;9.77;2.47;;;;;;;4.42;100.00;102129.00;695567;28;836;-57
2022/01/28 01:01:15;;;;;;;9.10;2.13;;;;;;;4.41;100.00;102125.50;694997;28;4543;-57
2022/01/28 01:01:36;;;;;;;15.05;3.05;;;;;;;4.38;100.00;102127.09;691680;28;1338;-54
2022/01/28 01:01:56;;;;;;;15.67;2.70;;;;;;;4.33;100.00;102124.25;690971;28;3916;-55
2022/01/28 01:02:34;;;;;;;14.63;2.73;;;;;;;4.25;100.00;102125.63;690834;28;3423;-53
2022/01/28 01:02:55;;;;;;;12.70;2.83;;;;;;;4.21;100.00;102124.63;692416;28;1210;-55
2022/01/28 01:03:16;;;;;;;12.90;2.85;;;;;;;4.21;100.00;102123.72;691972;28;1104;-54
2022/01/28 01:03:36;;;;;;;11.27;2.57;;;;;;;4.17;100.00;102125.31;694517;28;1091;-53
2022/01/28 01:03:57;;;;;;;14.25;2.60;;;;;;;4.16;100.00;102131.28;695485;28;797;-52
2022/01/28 01:04:18;;;;;;;11.85;2.60;;;;;;;4.13;100.00;102130.28;693553;28;4447;-52
2022/01/28 01:04:40;;;;;;;12.03;2.40;;;;;;;4.20;100.00;102128.03;694612;28;943;-53
2022/01/28 01:05:01;;;;;;;10.25;2.40;;;;;;;4.21;100.00;102132.38;693849;28;4132;-56
2022/01/28 01:05:22;;;;;;;9.50;2.20;;;;;;;4.19;100.00;102133.13;694373;28;3613;-54
2022/01/28 01:05:43;;;;;;;10.80;2.20;;;;;;;4.17;100.00;102124.44;691837;28;1226;-56
2022/01/28 01:06:03;;;;;;;13.05;2.47;;;;;;;4.15;100.00;102133.81;688470;28;997;-54
2022/01/28 01:06:24;;;;;;;11.90;2.37;;;;;;;4.14;100.00;102132.03;687582;28;797;-56
2022/01/28 01:06:44;;;;;;;11.30;2.40;;;;;;;4.11;100.00;102131.91;688657;28;1352;-53
2022/01/28 01:07:05;;;;;;;13.15;2.78;;;;;;;4.12;100.00;102138.84;686116;28;4404;-53
2022/01/28 01:07:25;;;;;;;12.53;2.50;;;;;;;4.09;100.00;102137.00;686938;28;943;-52
2022/01/28 01:07:46;;;;;;;10.73;2.22;;;;;;;4.07;100.00;102141.22;688307;28;813;-55
2022/01/28 01:08:06;;;;;;;9.93;2.37;;;;;;;4.06;100.00;102135.16;691675;28;3601;-52
2022/01/28 01:08:27;;;;;;;11.85;2.70;;;;;;;4.03;100.00;102129.84;691459;28;1938;-53
2022/01/28 01:08:47;;;;;;;12.40;2.67;;;;;;;4.04;100.00;102136.81;690831;28;1786;-56
2022/01/28 01:09:08;;;;;;;11.98;2.35;;;;;;;4.16;100.00;102131.28;694539;28;971;-53
2022/01/28 01:09:28;;;;;;;12.40;2.43;;;;;;;4.12;100.00;102136.28;692483;28;1646;-53
2022/01/28 01:09:49;;;;;;;12.48;2.67;;;;;;;4.11;100.00;102122.41;692223;28;1047;-55
2022/01/28 01:10:10;;;;;;;12.50;2.50;;;;;;;4.08;100.00;102130.97;692203;28;4360;-54
2022/01/28 01:10:31;;;;;;;15.65;2.80;;;;;;;4.07;100.00;102130.88;692002;28;1662;-57
2022/01/28 01:10:54;;;;;;;10.82;2.60;;;;;;;4.04;100.00;102126.47;691408;28;4052;-54
2022/01/28 01:11:15;;;;;;;11.15;2.50;;;;;;;4.02;100.00;102127.22;691083;28;3316;-53
2022/01/28 01:11:39;;;;;;;13.00;2.63;;;;;;;4.00;100.00;102129.72;695207;28;1487;-53
2022/01/28 01:11:59;;;;;;;11.35;2.60;;;;;;;3.97;100.00;102133.88;692187;28;1712;-56
2022/01/28 01:12:22;;;;;;;12.55;2.67;;;;;;;4.06;100.00;102129.13;692705;28;1058;-53
2022/01/28 01:12:45;;;;;;;12.73;2.83;;;;;;;4.07;100.00;102136.03;691411;28;953;-57
2022/01/28 01:13:06;;;;;;;11.45;2.55;;;;;;;4.06;100.00;102135.16;691456;28;4290;-55
2022/01/28 01:13:26;;;;;;;11.40;2.63;;;;;;;4.06;100.00;102135.16;692465;28;1143;-54
2022/01/28 01:13:49;;;;;;;12.07;2.50;;;;;;;4.04;100.00;102139.41;692998;28;1840;-53
2022/01/28 01:14:10;;;;;;;12.63;2.60;;;;;;;4.03;100.00;102145.38;693910;28;4121;-56
2022/01/28 01:14:30;;;;;;;11.52;2.60;;;;;;;4.01;100.00;102141.81;693914;28;4413;-56
2022/01/28 01:14:51;;;;;;;11.57;2.50;;;;;;;3.96;100.00;102147.59;694756;28;1857;-55
2022/01/28 01:15:17;;;;;;;12.30;2.40;;;;;;;3.94;100.00;102139.78;693170;28;907;-54
2022/01/28 01:15:42;;;;;;;13.20;2.42;;;;;;;3.99;100.00;102143.47;694317;28;1071;-52
2022/01/28 01:16:03;;;;;;;11.57;2.42;;;;;;;3.94;100.00;102152.72;691853;28;1083;-56
2022/01/28 01:16:44;;;;;;;11.02;2.40;;;;;;;4.01;100.00;102147.00;691145;28;4258;-58
2022/01/28 01:17:27;;;;;;;12.00;2.60;;;;;;;4.04;100.00;102147.16;691188;28;2556;-55
2022/01/28 01:18:08;;;;;;;12.30;2.63;;;;;;;3.97;100.00;102139.91;692362;28;1616;-58
2022/01/28 01:18:37;;;;;;;14.23;2.60;;;;;;;3.93;100.00;102143.16;695669;28;1151;-57
2022/01/28 01:19:21;;;;;;;10.85;2.42;;;;;;;4.01;100.00;102146.13;691196;28;1239;-53
2022/01/28 01:19:46;;;;;;;13.65;2.80;;;;;;;4.04;100.00;102154.03;690828;28;4835;-55
2022/01/28 01:21:22;;;;;;;12.43;2.47;;;;;;;3.99;100.00;102155.50;690889;28;3783;-54
2022/01/28 01:21:24;;;;;;;13.63;2.72;;;;;;;3.92;100.00;102149.19;689141;28;4329;-55
2022/01/28 01:21:44;;;;;;;13.63;2.80;;;;;;;3.92;100.00;102154.38;692220;28;1099;-53
2022/01/28 01:22:07;;;;;;;14.25;2.90;;;;;;;3.87;100.00;102154.13;688371;28;4578;-56
2022/01/28 01:22:36;;;;;;;12.48;2.53;;;;;;;3.85;100.00;102158.34;688981;28;1943;-55
2022/01/28 01:23:11;;;;;;;9.73;2.33;;;;;;;3.83;100.00;102154.78;689312;28;1530;-53
2022/01/28 01:23:35;;;;;;;11.52;2.50;;;;;;;3.80;100.00;102161.53;688833;28;4246;-56
2022/01/28 01:23:58;;;;;;;12.25;2.60;;;;;;;3.77;100.00;102159.69;692963;28;4578;-53
2022/01/28 01:24:22;;;;;;;12.07;2.58;;;;;;;3.75;100.00;102154.47;691177;28;1545;-56
2022/01/28 01:24:52;;;;;;;11.20;2.60;;;;;;;3.90;100.00;102161.16;691895;28;1735;-52
2022/01/28 01:25:22;;;;;;;13.23;2.92;;;;;;;3.93;100.00;102158.69;689957;28;4310;-54
2022/01/28 01:26:09;;;;;;;12.32;2.53;;;;;;;3.90;100.00;102164.66;692806;28;1768;-58
2022/01/28 01:26:36;;;;;;;14.57;2.75;;;;;;;3.87;100.00;102159.31;694224;28;1086;-53
2022/01/28 01:26:59;;;;;;;11.60;2.53;;;;;;;3.84;100.00;102164.34;694006;28;1748;-55
2022/01/28 01:27:20;;;;;;;12.85;2.90;;;;;;;3.82;100.00;102163.41;694535;28;5175;-56
2022/01/28 01:27:42;;;;;;;12.27;2.63;;;;;;;3.83;100.00;102169.44;693997;28;1405;-54
2022/01/28 01:28:02;;;;;;;12.50;2.40;;;;;;;3.72;100.00;102161.16;694295;28;1840;-57
2022/01/28 01:28:28;;;;;;;12.23;2.40;;;;;;;3.76;100.00;102170.84;693720;28;4337;-55
2022/01/28 01:28:49;;;;;;;10.98;2.42;;;;;;;3.77;100.00;102172.63;692108;28;1947;-53
2022/01/28 01:29:12;;;;;;;12.05;3.05;;;;;;;3.78;100.00;102168.34;691284;28;969;-52
2022/01/28 01:29:33;;;;;;;11.13;2.65;;;;;;;3.78;100.00;102173.50;692101;28;2437;-53
2022/01/28 01:29:53;;;;;;;14.10;2.40;;;;;;;3.75;100.00;102172.56;690854;28;3537;-52
2022/01/28 01:30:16;;;;;;;12.47;2.57;;;;;;;3.72;100.00;102164.66;691404;28;1786;-53
2022/01/28 01:30:40;;;;;;;12.75;2.67;;;;;;;3.69;100.00;102167.09;689921;28;1214;-55
2022/01/28 01:31:03;;;;;;;10.93;2.33;;;;;;;3.68;100.00;102173.09;691485;28;2030;-55
2022/01/28 01:31:24;;;;;;;12.45;2.28;;;;;;;3.69;100.00;102173.97;691420;28;4716;-52
2022/01/28 01:31:45;;;;;;;14.23;2.40;;;;;;;3.70;100.00;102175.75;691739;28;1377;-53
2022/01/28 01:32:12;;;;;;;12.98;2.38;;;;;;;3.69;100.00;102176.56;691664;28;1952;-54
2022/01/28 01:32:34;;;;;;;14.55;2.78;;;;;;;3.67;100.00;102168.72;693636;28;3310;-54
2022/01/28 01:32:54;;;;;;;12.77;2.22;;;;;;;3.67;100.00;102171.31;691126;28;3704;-53
2022/01/28 01:33:16;;;;;;;11.60;2.30;;;;;;;3.67;100.00;102176.47;690678;28;1198;-55
2022/01/28 01:33:42;;;;;;;11.77;2.30;;;;;;;3.67;100.00;102176.47;691921;28;1162;-53
2022/01/28 01:34:11;;;;;;;15.18;2.60;;;;;;;3.75;100.00;102169.97;690967;28;1038;-56
2022/01/28 01:34:31;;;;;;;12.50;2.38;;;;;;;3.75;100.00;102175.16;688808;28;7289;-55
2022/01/28 01:34:52;;;;;;;12.10;2.33;;;;;;;3.70;100.00;102179.22;691644;28;1108;-53
2022/01/28 01:35:12;;;;;;;8.60;2.30;;;;;;;3.69;100.00;102172.25;691623;28;944;-53
2022/01/28 01:35:34;;;;;;;11.43;2.37;;;;;;;3.68;100.00;102178.25;691641;28;1828;-52
2022/01/28 01:35:54;;;;;;;11.07;2.20;;;;;;;3.65;100.00;102172.91;688055;28;3374;-54
2022/01/28 01:36:15;;;;;;;11.60;2.28;;;;;;;3.64;100.00;102176.34;688839;28;1378;-53
2022/01/28 01:36:36;;;;;;;13.23;2.50;;;;;;;3.65;100.00;102175.50;691169;28;1499;-54
2022/01/28 01:36:56;;;;;;;14.73;2.45;;;;;;;3.62;100.00;102175.38;692334;28;1365;-52
2022/01/28 01:37:17;;;;;;;13.52;2.70;;;;;;;3.61;100.00;102171.00;690562;28;4480;-56
2022/01/28 01:37:37;;;;;;;13.07;2.33;;;;;;;3.62;100.00;102175.38;688903;28;1205;-53
2022/01/28 01:37:58;;;;;;;12.25;2.30;;;;;;;3.64;100.00;102171.16;691790;28;1068;-56
2022/01/28 01:38:23;;;;;;;13.15;2.50;;;;;;;3.63;100.00;102174.56;691850;28;1884;-53
2022/01/28 01:38:44;;;;;;;11.75;2.30;;;;;;;3.64;100.00;102173.75;689677;28;1168;-52
2022/01/28 01:39:07;;;;;;;10.23;2.05;;;;;;;3.62;100.00;102166.72;689102;28;2438;-54
2022/01/28 01:39:33;;;;;;;10.00;2.45;;;;;;;3.63;100.00;102174.56;689889;28;3749;-55
2022/01/28 01:39:53;;;;;;;12.30;2.60;;;;;;;3.65;100.00;102167.75;692143;28;1377;-54
2022/01/28 01:40:19;;;;;;;11.15;2.35;;;;;;;3.62;100.00;102167.59;690950;28;4479;-55
2022/01/28 01:40:52;;;;;;;15.73;2.40;;;;;;;3.62;100.00;102170.19;694417;28;1437;-54
2022/01/28 01:41:19;;;;;;;13.70;2.30;;;;;;;3.60;100.00;102179.59;691251;28;1387;-55
2022/01/28 01:41:45;;;;;;;12.75;2.28;;;;;;;3.60;100.00;102168.34;689266;28;2058;-52
2022/01/28 01:42:34;;;;;;;11.82;2.45;;;;;;;3.60;100.00;102171.84;688605;28;3344;-53
2022/01/28 01:43:07;;;;;;;12.10;2.67;;;;;;;3.57;100.00;102164.81;688987;28;2135;-56
2022/01/28 01:43:48;;;;;;;9.50;2.22;;;;;;;3.57;100.00;102174.25;689505;28;5780;-54
2022/01/28 01:52:40;;;;;;;13.75;2.60;;;;;;;3.44;100.00;102184.84;680524;29;5778;-56
2022/01/28 01:53:00;;;;;;;13.00;2.30;;;;;;;3.43;100.00;102176.16;680342;28;1226;-55
2022/01/28 01:53:21;;;;;;;13.33;2.43;;;;;;;3.45;100.00;102184.91;683691;28;1272;-57
2022/01/28 01:53:41;;;;;;;9.85;2.30;;;;;;;3.44;100.00;102179.66;684376;28;1242;-54
2022/01/28 01:54:02;;;;;;;10.87;2.10;;;;;;;3.45;100.00;102178.81;693564;28;1336;-54
2022/01/28 01:54:23;;;;;;;12.10;2.28;;;;;;;3.46;100.00;102180.59;693419;28;3516;-53
2022/01/28 01:54:44;;;;;;;9.63;2.13;;;;;;;3.43;100.00;102186.50;694160;28;1328;-54
2022/01/28 01:55:05;;;;;;;10.25;2.10;;;;;;;3.43;100.00;102183.94;693169;28;4362;-56
2022/01/28 01:55:26;;;;;;;9.95;2.00;;;;;;;3.44;100.00;102185.72;694361;28;1374;-53
2022/01/28 01:55:47;;;;;;;8.83;2.23;;;;;;;3.46;100.00;102186.69;692123;28;1335;-52
2022/01/28 01:56:08;;;;;;;11.10;2.60;;;;;;;3.47;100.00;102188.44;690683;28;1194;-54
2022/01/28 01:56:29;;;;;;;12.30;2.27;;;;;;;3.45;100.00;102181.41;689590;28;1088;-53
2022/01/28 01:56:49;;;;;;;11.32;2.30;;;;;;;3.43;100.00;102183.94;689878;28;1159;-57
2022/01/28 01:57:12;;;;;;;10.00;2.20;;;;;;;3.38;100.00;102183.72;688649;28;1874;-52
2022/01/28 01:57:33;;;;;;;11.20;2.40;;;;;;;3.35;100.00;102185.25;689091;28;1362;-53
2022/01/28 01:57:54;;;;;;;11.13;2.10;;;;;;;3.36;100.00;102187.03;691715;28;1222;-54
2022/01/28 01:58:15;;;;;;;11.03;2.37;;;;;;;3.33;100.00;102185.19;690028;28;4513;-57
2022/01/28 01:58:36;;;;;;;10.48;2.67;;;;;;;3.33;100.00;102185.19;691273;28;1223;-53
2022/01/28 01:58:58;;;;;;;10.23;2.13;;;;;;;3.32;100.00;102185.09;690215;28;1252;-55
2022/01/28 01:59:18;;;;;;;10.27;2.00;;;;;;;3.36;100.00;102185.31;688408;28;1914;-54
2022/01/28 01:59:40;;;;;;;11.10;2.50;;;;;;;3.37;100.00;102186.22;688407;28;1121;-55
2022/01/28 02:00:01;;;;;;;11.52;2.67;;;;;;;3.37;100.00;102191.41;687525;28;2385;-57
2022/01/28 02:00:22;;;;;;;10.02;2.15;;;;;;;3.32;100.00;102187.69;685880;28;3699;-57
2022/01/28 02:00:42;;;;;;;10.27;2.10;;;;;;;3.27;100.00;102187.47;686914;28;1579;-53
2022/01/28 02:01:02;;;;;;;14.10;2.53;;;;;;;3.27;100.00;102182.31;687703;28;1024;-55
2022/01/28 02:01:23;;;;;;;10.38;2.40;;;;;;;3.26;100.00;102193.44;686106;28;5135;-54
2022/01/28 02:01:44;;;;;;;11.63;2.33;;;;;;;3.26;100.00;102189.97;688468;28;1167;-54
2022/01/28 02:02:06;;;;;;;13.40;2.40;;;;;;;3.23;100.00;102186.41;688025;28;1067;-53
2022/01/28 02:02:26;;;;;;;10.18;2.15;;;;;;;3.19;100.00;102192.25;688243;28;1823;-53
2022/01/28 02:02:47;;;;;;;10.70;2.40;;;;;;;3.18;100.00;102187.88;688356;28;957;-55
2022/01/28 02:03:07;;;;;;;13.43;2.45;;;;;;;3.17;100.00;102185.22;687742;28;938;-52
2022/01/28 02:03:28;;;;;;;11.87;2.07;;;;;;;3.18;100.00;102190.47;689732;28;3232;-53
2022/01/28 02:03:49;;;;;;;11.88;2.20;;;;;;;3.17;100.00;102187.81;691634;28;3694;-56
2022/01/28 02:04:09;;;;;;;11.88;2.70;;;;;;;3.17;100.00;102190.38;693562;28;4510;-54
2022/01/28 02:04:30;;;;;;;14.40;2.77;;;;;;;3.19;100.00;102191.38;694034;28;1510;-55
2022/01/28 02:04:50;;;;;;;10.30;2.30;;;;;;;3.19;100.00;102186.19;695160;28;1807;-52
2022/01/28 02:05:11;;;;;;;8.10;1.83;;;;;;;3.18;100.00;102184.41;694329;28;1035;-53
2022/01/28 02:05:31;;;;;;;12.13;2.30;;;;;;;3.17;100.00;102186.13;691213;28;1363;-56
2022/01/28 02:05:55;;;;;;;12.30;2.50;;;;;;;3.15;100.00;102184.28;688846;28;894;-54
2022/01/28 02:06:20;;;;;;;12.20;2.72;;;;;;;3.10;100.00;102186.59;684404;28;1458;-54
2022/01/28 02:06:42;;;;;;;9.32;2.10;;;;;;;3.06;100.00;102184.72;685817;28;3752;-55
2022/01/28 02:07:03;;;;;;;11.32;2.20;;;;;;;3.03;100.00;102185.44;684569;28;1892;-53
2022/01/28 02:07:25;;;;;;;11.90;2.33;;;;;;;3.03;100.00;102181.94;686218;28;4456;-56
2022/01/28 02:07:46;;;;;;;10.65;2.30;;;;;;;3.06;100.00;102189.88;688156;28;1999;-58
2022/01/28 02:08:06;;;;;;;9.23;2.05;;;;;;;3.08;100.00;102190.81;692735;28;983;-53
2022/01/28 02:08:29;;;;;;;10.67;2.40;;;;;;;3.06;100.00;102184.72;691415;28;1111;-56
2022/01/28 02:08:50;;;;;;;13.05;2.50;;;;;;;3.03;100.00;102188.03;690146;28;1247;-55
2022/01/28 02:09:10;;;;;;;11.25;2.22;;;;;;;3.01;100.00;102189.63;690717;28;1090;-54
2022/01/28 02:09:31;;;;;;;12.45;2.30;;;;;;;3.02;100.00;102191.41;690358;28;3119;-56
2022/01/28 02:09:51;;;;;;;14.77;2.40;;;;;;;3.02;100.00;102187.94;690085;28;3616;-53
2022/01/28 02:10:13;;;;;;;16.35;2.47;;;;;;;3.04;100.00;102194.06;687727;28;4366;-53
2022/01/28 02:10:34;;;;;;;12.13;2.22;;;;;;;3.04;100.00;102194.06;691689;28;1064;-54
2022/01/28 02:10:57;;;;;;;13.10;2.33;;;;;;;3.04;100.00;102189.78;689849;28;1108;-54
2022/01/28 02:11:18;;;;;;;12.68;2.53;;;;;;;3.04;100.00;102187.19;686956;28;1413;-55
2022/01/28 02:11:41;;;;;;;13.70;2.50;;;;;;;3.00;100.00;102190.44;687756;28;1182;-55
2022/01/28 02:12:02;;;;;;;15.50;2.90;;;;;;;2.99;100.00;102187.75;685778;28;1282;-52
2022/01/28 02:12:23;;;;;;;13.85;2.70;;;;;;;2.99;100.00;102187.75;688540;28;1115;-55
2022/01/28 02:12:49;;;;;;;11.73;2.30;;;;;;;3.01;100.00;102191.34;689445;28;3636;-55
2022/01/28 02:13:10;;;;;;;11.00;2.28;;;;;;;3.00;100.00;102190.44;690231;28;4469;-54
2022/01/28 02:13:35;;;;;;;14.10;2.47;;;;;;;2.98;100.00;102192.06;692223;28;2571;-55
2022/01/28 02:13:55;;;;;;;11.65;2.47;;;;;;;2.98;100.00;102193.78;690388;28;2319;-54
2022/01/28 02:14:15;;;;;;;12.27;2.37;;;;;;;2.96;100.00;102193.66;691349;28;1272;-57
2022/01/28 02:14:36;;;;;;;10.65;2.10;;;;;;;2.98;100.00;102188.59;691654;28;1245;-55
2022/01/28 02:14:56;;;;;;;12.67;2.20;;;;;;;2.99;100.00;102198.09;691023;28;1150;-53
2022/01/28 02:15:18;;;;;;;12.67;2.33;;;;;;;3.01;100.00;102188.75;691389;28;1231;-53
2022/01/28 02:15:39;;;;;;;11.65;2.33;;;;;;;2.99;100.00;102190.34;691102;28;3123;-56
2022/01/28 02:16:00;;;;;;;10.33;2.30;;;;;;;3.01;100.00;102196.50;692704;28;999;-53
2022/01/28 02:16:21;;;;;;;11.70;2.28;;;;;;;3.02;100.00;102194.00;692903;28;4637;-53
2022/01/28 02:16:41;;;;;;;13.80;2.38;;;;;;;3.01;100.00;102187.03;694710;28;1142;-56
2022/01/28 02:17:03;;;;;;;13.13;2.30;;;;;;;3.00;100.00;102193.00;694212;28;1056;-55
2022/01/28 02:17:23;;;;;;;15.10;2.63;;;;;;;2.98;100.00;102192.06;693570;28;1876;-53
2022/01/28 02:17:44;;;;;;;13.20;2.27;;;;;;;2.96;100.00;102188.50;694555;28;1103;-55
2022/01/28 02:18:04;;;;;;;11.27;2.05;;;;;;;2.99;100.00;102192.94;693978;28;909;-56